createdAt,value
2022-08-01T00:04:48.241Z,21.40
2022-08-01T00:09:50.037Z,21.50
2022-08-01T00:14:51.819Z,21.80
2022-08-01T00:19:53.684Z,21.80
2022-08-01T00:24:55.426Z,21.80
2022-08-01T00:30:11.507Z,21.90
2022-08-01T00:35:16.068Z,21.90
2022-08-01T00:40:17.885Z,21.80
2022-08-01T00:45:19.699Z,21.20
2022-08-01T00:50:21.483Z,20.70
2022-08-01T00:55:24.219Z,20.50
2022-08-01T01:00:27.245Z,20.50
2022-08-01T01:05:32.582Z,20.40
2022-08-01T01:10:48.875Z,20.30
2022-08-01T01:15:58.748Z,20.30
2022-08-01T01:21:18.179Z,20.30
2022-08-01T01:26:46.804Z,20.30
2022-08-01T01:31:57.224Z,20.60
2022-08-01T01:37:00.345Z,20.60
2022-08-01T01:42:03.857Z,20.60
2022-08-01T01:47:06.766Z,20.70
2022-08-01T01:52:09.934Z,20.90
2022-08-01T01:57:13.823Z,20.80
2022-08-01T02:02:17.764Z,20.80
2022-08-01T02:07:25.867Z,20.90
2022-08-01T02:12:29.018Z,21.00
2022-08-01T02:17:31.652Z,21.10
2022-08-01T02:22:38.153Z,21.00
2022-08-01T02:27:50.672Z,21.00
2022-08-01T02:33:01.608Z,21.00
2022-08-01T02:38:06.203Z,20.70
2022-08-01T02:43:10.441Z,20.70
2022-08-01T02:48:18.095Z,20.70
2022-08-01T02:53:24.166Z,20.70
2022-08-01T02:58:47.548Z,20.60
2022-08-01T03:03:49.475Z,20.60
2022-08-01T03:08:52.127Z,20.70
2022-08-01T03:13:56.079Z,20.70
2022-08-01T03:18:58.069Z,20.60
2022-08-01T03:24:02.140Z,20.60
2022-08-01T03:29:15.030Z,20.70
2022-08-01T03:34:17.463Z,20.70
2022-08-01T03:39:21.911Z,20.70
2022-08-01T03:44:27.267Z,20.90
2022-08-01T03:49:34.783Z,21.00
2022-08-01T03:54:39.540Z,21.00
2022-08-01T03:59:42.165Z,21.10
2022-08-01T04:04:44.053Z,21.10
2022-08-01T04:09:45.768Z,21.10
2022-08-01T04:14:48.060Z,21.20
2022-08-01T04:19:49.790Z,21.20
2022-08-01T04:24:57.063Z,21.20
2022-08-01T04:30:00.985Z,21.30
2022-08-01T04:35:05.660Z,21.40
2022-08-01T04:40:27.462Z,21.50
2022-08-01T04:45:29.591Z,21.60
2022-08-01T04:50:32.764Z,21.60
2022-08-01T04:55:34.677Z,21.50
2022-08-01T05:00:38.795Z,21.50
2022-08-01T05:05:40.612Z,21.50
2022-08-01T05:10:42.387Z,21.80
2022-08-01T05:15:44.157Z,22.10
2022-08-01T05:20:45.902Z,22.00
2022-08-01T05:25:56.676Z,22.10
2022-08-01T05:30:59.939Z,22.50
2022-08-01T05:36:02.034Z,22.60
2022-08-01T05:41:03.890Z,22.70
2022-08-01T05:46:05.653Z,22.70
2022-08-01T05:51:07.397Z,22.70
2022-08-01T05:56:09.261Z,22.80
2022-08-01T06:01:11.752Z,23.60
2022-08-01T06:06:15.108Z,24.40
2022-08-01T06:11:16.882Z,24.70
2022-08-01T06:16:20.516Z,25.30
2022-08-01T06:21:22.270Z,27.00
2022-08-01T06:26:24.004Z,30.40
2022-08-01T06:31:27.615Z,31.00
2022-08-01T06:36:32.318Z,30.70
2022-08-01T06:41:34.015Z,30.20
2022-08-01T06:46:36.419Z,30.00
2022-08-01T06:51:38.204Z,27.40
2022-08-01T06:56:39.972Z,26.30
2022-08-01T07:01:42.097Z,25.50
2022-08-01T07:06:43.908Z,25.60
2022-08-01T07:11:45.659Z,25.50
2022-08-01T07:16:47.683Z,25.40
2022-08-01T07:21:50.229Z,26.70
2022-08-01T07:26:54.577Z,27.60
2022-08-01T07:31:57.805Z,27.00
2022-08-01T07:36:59.590Z,27.10
2022-08-01T07:42:07.761Z,28.80
2022-08-01T07:47:10.039Z,28.60
2022-08-01T07:52:11.779Z,28.10
2022-08-01T07:57:13.607Z,27.30
2022-08-01T08:02:15.547Z,26.90
2022-08-01T08:07:17.358Z,26.10
2022-08-01T08:12:19.151Z,26.10
2022-08-01T08:17:35.949Z,26.50
2022-08-01T08:22:38.647Z,28.40
2022-08-01T08:27:40.457Z,28.30
2022-08-01T08:32:42.972Z,27.30
2022-08-01T08:37:47.820Z,26.30
2022-08-01T08:42:51.955Z,26.00
2022-08-01T08:47:55.560Z,27.60
2022-08-01T08:53:06.417Z,27.50
2022-08-01T08:58:13.312Z,26.80
2022-08-01T09:03:15.134Z,26.70
2022-08-01T09:08:17.229Z,26.60
2022-08-01T09:13:19.018Z,26.40
2022-08-01T09:18:41.313Z,25.90
2022-08-01T09:23:53.421Z,25.70
2022-08-01T09:28:56.481Z,26.40
2022-08-01T09:34:01.756Z,27.40
2022-08-01T09:39:14.185Z,27.30
2022-08-01T09:44:18.630Z,27.10
2022-08-01T09:49:50.607Z,26.70
2022-08-01T09:55:01.658Z,27.50
2022-08-01T10:00:05.883Z,29.10
2022-08-01T10:05:18.982Z,29.00
2022-08-01T10:10:23.344Z,28.20
2022-08-01T10:15:37.436Z,28.10
2022-08-01T10:20:40.575Z,28.50
2022-08-01T10:25:46.658Z,29.50
2022-08-01T10:30:50.061Z,30.70
2022-08-01T10:35:52.641Z,30.10
2022-08-01T10:40:58.246Z,29.90
2022-08-01T10:46:04.296Z,30.00
2022-08-01T10:51:18.476Z,29.00
2022-08-01T10:56:26.862Z,28.90
2022-08-01T11:01:37.574Z,30.20
2022-08-01T11:06:55.763Z,31.80
2022-08-01T11:12:25.117Z,31.80
2022-08-01T11:17:54.707Z,31.40
2022-08-01T11:23:03.233Z,30.20
2022-08-01T11:28:34.765Z,29.50
2022-08-01T11:33:46.005Z,28.80
2022-08-01T11:38:58.892Z,29.00
2022-08-01T11:44:20.917Z,30.70
2022-08-01T11:49:48.800Z,32.10
2022-08-01T11:54:55.931Z,32.80
2022-08-01T12:00:02.959Z,31.60
2022-08-01T12:05:17.673Z,32.40
2022-08-01T12:10:21.428Z,33.50
2022-08-01T12:15:25.350Z,33.70
2022-08-01T12:20:35.100Z,33.90
2022-08-01T12:25:40.192Z,32.50
2022-08-01T12:30:42.556Z,32.60
2022-08-01T12:35:47.901Z,32.20
2022-08-01T12:40:52.875Z,31.90
2022-08-01T12:45:57.929Z,31.10
2022-08-01T12:51:03.387Z,31.20
2022-08-01T12:56:05.409Z,31.60
2022-08-01T13:01:10.130Z,30.70
2022-08-01T13:06:15.503Z,30.10
2022-08-01T13:11:19.712Z,30.10
2022-08-01T13:16:27.804Z,30.90
2022-08-01T13:21:54.448Z,31.90
2022-08-01T13:27:03.437Z,32.80
2022-08-01T13:32:29.456Z,34.10
2022-08-01T13:37:32.422Z,33.50
2022-08-01T13:42:34.801Z,32.80
2022-08-01T13:47:36.650Z,33.80
2022-08-01T13:52:38.441Z,34.30
2022-08-01T13:57:40.217Z,33.90
2022-08-01T14:02:41.967Z,33.30
2022-08-01T14:07:45.529Z,32.60
2022-08-01T14:12:51.096Z,31.90
2022-08-01T14:17:52.976Z,32.50
2022-08-01T14:22:54.853Z,32.40
2022-08-01T14:27:57.429Z,31.60
2022-08-01T14:32:59.341Z,31.10
2022-08-01T14:38:01.160Z,31.10
2022-08-01T14:43:02.920Z,31.00
2022-08-01T14:48:05.039Z,30.80
2022-08-01T14:53:06.779Z,30.30
2022-08-01T14:58:08.685Z,30.20
2022-08-01T15:03:10.432Z,29.80
2022-08-01T15:08:12.115Z,29.30
2022-08-01T15:13:13.849Z,29.10
2022-08-01T15:18:15.617Z,29.80
2022-08-01T15:23:17.338Z,29.70
2022-08-01T15:28:20.328Z,29.60
2022-08-01T15:33:22.670Z,29.40
2022-08-01T15:38:24.391Z,29.60
2022-08-01T15:43:26.244Z,29.60
2022-08-01T15:48:29.708Z,29.60
2022-08-01T15:53:31.473Z,29.40
2022-08-01T15:58:33.801Z,29.20
2022-08-01T16:03:35.540Z,29.30
2022-08-01T16:08:37.275Z,29.10
2022-08-01T16:13:39.340Z,29.10
2022-08-01T16:18:41.092Z,29.20
2022-08-01T16:23:44.308Z,29.00
2022-08-01T16:28:48.278Z,29.10
2022-08-01T16:33:55.116Z,28.50
2022-08-01T16:38:59.872Z,28.60
2022-08-01T16:44:01.902Z,28.30
2022-08-01T16:49:03.749Z,28.20
2022-08-01T16:54:06.075Z,28.20
2022-08-01T16:59:27.653Z,28.20
2022-08-01T17:04:30.348Z,27.90
2022-08-01T17:09:32.123Z,27.90
2022-08-01T17:14:34.244Z,28.30
2022-08-01T17:19:36.055Z,28.00
2022-08-01T17:24:38.036Z,28.00
2022-08-01T17:29:44.034Z,28.20
2022-08-01T17:34:46.349Z,28.20
2022-08-01T17:39:48.127Z,28.00
2022-08-01T17:44:52.141Z,27.80
2022-08-01T17:49:56.224Z,27.90
2022-08-01T17:54:58.407Z,27.70
2022-08-01T18:00:00.229Z,27.60
2022-08-01T18:05:02.116Z,27.60
2022-08-01T18:10:07.300Z,27.40
2022-08-01T18:15:15.156Z,27.40
2022-08-01T18:20:17.155Z,27.20
2022-08-01T18:25:19.884Z,27.20
2022-08-01T18:30:21.684Z,27.00
2022-08-01T18:35:24.188Z,26.80
2022-08-01T18:40:35.907Z,26.60
2022-08-01T18:45:42.555Z,26.40
2022-08-01T18:50:44.722Z,26.30
2022-08-01T18:55:46.753Z,26.30
2022-08-01T19:00:48.711Z,25.70
2022-08-01T19:05:50.472Z,25.40
2022-08-01T19:10:52.261Z,25.30
2022-08-01T19:15:54.144Z,25.10
2022-08-01T19:20:55.928Z,25.10
2022-08-01T19:25:58.098Z,25.10
2022-08-01T19:31:02.259Z,25.10
2022-08-01T19:36:04.746Z,25.00
2022-08-01T19:41:07.220Z,24.80
2022-08-01T19:46:14.957Z,24.60
2022-08-01T19:51:21.822Z,24.50
2022-08-01T19:56:26.448Z,24.30
2022-08-01T20:01:28.371Z,24.20
2022-08-01T20:06:30.832Z,23.90
2022-08-01T20:11:32.547Z,23.60
2022-08-01T20:16:34.387Z,23.60
2022-08-01T20:21:37.503Z,23.40
2022-08-01T20:26:40.148Z,23.50
2022-08-01T20:31:47.384Z,23.40
2022-08-01T20:36:56.588Z,23.50
2022-08-01T20:41:59.514Z,23.60
2022-08-01T20:47:05.037Z,23.70
2022-08-01T20:52:11.544Z,23.70
2022-08-01T20:57:27.970Z,23.80
2022-08-01T21:02:48.977Z,23.70
2022-08-01T21:07:53.035Z,23.50
2022-08-01T21:13:02.671Z,23.20
2022-08-01T21:18:09.942Z,23.20
2022-08-01T21:23:25.105Z,23.00
2022-08-01T21:28:27.910Z,23.00
2022-08-01T21:33:29.754Z,22.80
2022-08-01T21:38:33.658Z,22.50
2022-08-01T21:43:37.036Z,22.50
2022-08-01T21:48:39.119Z,22.30
2022-08-01T21:53:49.775Z,22.20
2022-08-01T21:59:05.819Z,22.10
2022-08-01T22:04:12.221Z,22.10
2022-08-01T22:09:15.190Z,21.90
2022-08-01T22:14:19.476Z,21.90
2022-08-01T22:19:34.138Z,21.90
2022-08-01T22:24:45.575Z,21.90
2022-08-01T22:29:47.257Z,21.90
2022-08-01T22:34:49.025Z,21.80
2022-08-01T22:39:50.859Z,21.90
2022-08-01T22:45:04.626Z,21.90
2022-08-01T22:50:07.624Z,22.00
2022-08-01T22:55:11.162Z,22.20
2022-08-01T23:00:13.475Z,22.30
2022-08-01T23:05:21.800Z,22.20
2022-08-01T23:10:25.914Z,22.40
2022-08-01T23:15:28.549Z,22.30
2022-08-01T23:20:32.453Z,22.30
2022-08-01T23:25:36.565Z,22.20
2022-08-01T23:30:38.688Z,22.00
2022-08-01T23:35:41.054Z,21.90
2022-08-01T23:40:43.190Z,21.80
2022-08-01T23:46:03.891Z,21.80
2022-08-01T23:51:07.642Z,21.70
2022-08-01T23:56:10.975Z,21.70
